sensor_id;sensor_type;location;lat;lon;timestamp;P1;durP1;ratioP1;P2;durP2;ratioP2
8913;SDS011;4492;48.736;9.092;2022-07-23T00:01:16;4.50;;;4.20;;
8913;SDS011;4492;48.736;9.092;2022-07-23T00:03:42;7.93;;;4.90;;
8913;SDS011;4492;48.736;9.092;2022-07-23T00:06:08;5.47;;;4.93;;
8913;SDS011;4492;48.736;9.092;2022-07-23T00:08:33;6.57;;;4.77;;
8913;SDS011;4492;48.736;9.092;2022-07-23T00:10:59;5.27;;;4.57;;
8913;SDS011;4492;48.736;9.092;2022-07-23T00:13:25;5.03;;;4.67;;
8913;SDS011;4492;48.736;9.092;2022-07-23T00:15:51;5.37;;;4.80;;
8913;SDS011;4492;48.736;9.092;2022-07-23T00:18:16;5.10;;;4.60;;
8913;SDS011;4492;48.736;9.092;2022-07-23T00:20:42;4.67;;;4.27;;
8913;SDS011;4492;48.736;9.092;2022-07-23T00:23:08;6.83;;;4.30;;
8913;SDS011;4492;48.736;9.092;2022-07-23T00:25:33;5.03;;;4.53;;
8913;SDS011;4492;48.736;9.092;2022-07-23T00:27:59;5.00;;;4.60;;
8913;SDS011;4492;48.736;9.092;2022-07-23T00:30:25;5.67;;;4.50;;
8913;SDS011;4492;48.736;9.092;2022-07-23T00:32:55;6.43;;;4.60;;
8913;SDS011;4492;48.736;9.092;2022-07-23T00:35:23;5.00;;;4.27;;
8913;SDS011;4492;48.736;9.092;2022-07-23T00:37:50;5.10;;;4.60;;
8913;SDS011;4492;48.736;9.092;2022-07-23T00:40:15;4.23;;;3.87;;
8913;SDS011;4492;48.736;9.092;2022-07-23T00:42:41;5.23;;;4.77;;
8913;SDS011;4492;48.736;9.092;2022-07-23T00:45:07;8.43;;;4.43;;
8913;SDS011;4492;48.736;9.092;2022-07-23T00:47:33;5.07;;;4.67;;
8913;SDS011;4492;48.736;9.092;2022-07-23T00:49:59;5.77;;;4.60;;
8913;SDS011;4492;48.736;9.092;2022-07-23T00:52:25;5.70;;;5.20;;
8913;SDS011;4492;48.736;9.092;2022-07-23T00:54:50;4.87;;;4.57;;
8913;SDS011;4492;48.736;9.092;2022-07-23T00:57:16;5.03;;;4.53;;
8913;SDS011;4492;48.736;9.092;2022-07-23T00:59:42;4.87;;;4.20;;
8913;SDS011;4492;48.736;9.092;2022-07-23T01:02:08;5.43;;;4.93;;
8913;SDS011;4492;48.736;9.092;2022-07-23T01:04:34;5.00;;;4.63;;
8913;SDS011;4492;48.736;9.092;2022-07-23T01:06:59;5.07;;;4.67;;
8913;SDS011;4492;48.736;9.092;2022-07-23T01:09:25;5.43;;;4.90;;
8913;SDS011;4492;48.736;9.092;2022-07-23T01:11:51;4.77;;;4.33;;
8913;SDS011;4492;48.736;9.092;2022-07-23T01:14:18;5.30;;;4.90;;
8913;SDS011;4492;48.736;9.092;2022-07-23T01:16:45;4.80;;;4.33;;
8913;SDS011;4492;48.736;9.092;2022-07-23T01:19:13;5.57;;;5.10;;
8913;SDS011;4492;48.736;9.092;2022-07-23T01:21:43;5.07;;;4.67;;
8913;SDS011;4492;48.736;9.092;2022-07-23T01:24:11;5.70;;;5.20;;
8913;SDS011;4492;48.736;9.092;2022-07-23T01:26:37;4.77;;;4.30;;
8913;SDS011;4492;48.736;9.092;2022-07-23T01:29:05;6.47;;;4.90;;
8913;SDS011;4492;48.736;9.092;2022-07-23T01:31:31;6.53;;;4.60;;
8913;SDS011;4492;48.736;9.092;2022-07-23T01:33:56;6.03;;;4.33;;
8913;SDS011;4492;48.736;9.092;2022-07-23T01:36:22;5.00;;;4.60;;
8913;SDS011;4492;48.736;9.092;2022-07-23T01:38:48;5.63;;;5.00;;
8913;SDS011;4492;48.736;9.092;2022-07-23T01:41:15;5.33;;;4.83;;
8913;SDS011;4492;48.736;9.092;2022-07-23T01:43:41;5.20;;;4.70;;
8913;SDS011;4492;48.736;9.092;2022-07-23T01:46:07;4.50;;;4.20;;
8913;SDS011;4492;48.736;9.092;2022-07-23T01:48:33;4.97;;;4.47;;
8913;SDS011;4492;48.736;9.092;2022-07-23T01:50:59;5.20;;;4.80;;
8913;SDS011;4492;48.736;9.092;2022-07-23T01:53:24;5.33;;;4.30;;
8913;SDS011;4492;48.736;9.092;2022-07-23T01:55:50;5.87;;;4.80;;
8913;SDS011;4492;48.736;9.092;2022-07-23T01:58:15;5.90;;;4.63;;
8913;SDS011;4492;48.736;9.092;2022-07-23T02:00:41;5.17;;;4.57;;
8913;SDS011;4492;48.736;9.092;2022-07-23T02:03:07;5.53;;;4.77;;
8913;SDS011;4492;48.736;9.092;2022-07-23T02:05:32;4.40;;;4.10;;
8913;SDS011;4492;48.736;9.092;2022-07-23T02:07:58;5.13;;;4.47;;
8913;SDS011;4492;48.736;9.092;2022-07-23T02:10:24;5.13;;;4.70;;
8913;SDS011;4492;48.736;9.092;2022-07-23T02:12:50;5.47;;;4.50;;
8913;SDS011;4492;48.736;9.092;2022-07-23T02:15:15;5.00;;;4.60;;
8913;SDS011;4492;48.736;9.092;2022-07-23T02:17:41;5.40;;;4.80;;
8913;SDS011;4492;48.736;9.092;2022-07-23T02:20:07;4.47;;;4.17;;
8913;SDS011;4492;48.736;9.092;2022-07-23T02:22:34;5.20;;;4.80;;
8913;SDS011;4492;48.736;9.092;2022-07-23T02:25:00;6.33;;;4.73;;
8913;SDS011;4492;48.736;9.092;2022-07-23T02:27:26;5.23;;;4.73;;
8913;SDS011;4492;48.736;9.092;2022-07-23T02:29:53;4.97;;;4.47;;
8913;SDS011;4492;48.736;9.092;2022-07-23T02:32:18;4.50;;;4.20;;
8913;SDS011;4492;48.736;9.092;2022-07-23T02:34:46;4.40;;;4.00;;
8913;SDS011;4492;48.736;9.092;2022-07-23T02:37:11;4.73;;;4.33;;
8913;SDS011;4492;48.736;9.092;2022-07-23T02:39:37;5.10;;;4.70;;
8913;SDS011;4492;48.736;9.092;2022-07-23T02:42:03;5.13;;;4.73;;
8913;SDS011;4492;48.736;9.092;2022-07-23T02:44:29;4.70;;;4.30;;
8913;SDS011;4492;48.736;9.092;2022-07-23T02:46:54;4.80;;;4.40;;
8913;SDS011;4492;48.736;9.092;2022-07-23T02:49:20;4.90;;;4.50;;
8913;SDS011;4492;48.736;9.092;2022-07-23T02:51:45;4.77;;;4.47;;
8913;SDS011;4492;48.736;9.092;2022-07-23T02:54:11;5.63;;;5.10;;
8913;SDS011;4492;48.736;9.092;2022-07-23T02:56:36;5.10;;;4.70;;
8913;SDS011;4492;48.736;9.092;2022-07-23T02:59:02;4.87;;;4.47;;
8913;SDS011;4492;48.736;9.092;2022-07-23T03:01:27;4.90;;;4.47;;
8913;SDS011;4492;48.736;9.092;2022-07-23T03:03:53;5.43;;;4.93;;
8913;SDS011;4492;48.736;9.092;2022-07-23T03:06:18;5.60;;;5.10;;
8913;SDS011;4492;48.736;9.092;2022-07-23T03:08:44;5.03;;;4.63;;
8913;SDS011;4492;48.736;9.092;2022-07-23T03:11:10;4.73;;;4.40;;
8913;SDS011;4492;48.736;9.092;2022-07-23T03:13:38;5.60;;;5.10;;
8913;SDS011;4492;48.736;9.092;2022-07-23T03:16:05;4.87;;;4.57;;
8913;SDS011;4492;48.736;9.092;2022-07-23T03:18:31;5.93;;;4.80;;
8913;SDS011;4492;48.736;9.092;2022-07-23T03:20:57;5.80;;;5.23;;
8913;SDS011;4492;48.736;9.092;2022-07-23T03:23:23;6.30;;;4.53;;
8913;SDS011;4492;48.736;9.092;2022-07-23T03:25:48;5.40;;;4.90;;
8913;SDS011;4492;48.736;9.092;2022-07-23T03:28:14;5.10;;;4.60;;
8913;SDS011;4492;48.736;9.092;2022-07-23T03:30:45;5.10;;;4.60;;
8913;SDS011;4492;48.736;9.092;2022-07-23T03:33:15;5.47;;;5.07;;
8913;SDS011;4492;48.736;9.092;2022-07-23T03:35:43;4.70;;;4.30;;
8913;SDS011;4492;48.736;9.092;2022-07-23T03:38:09;5.20;;;4.80;;
8913;SDS011;4492;48.736;9.092;2022-07-23T03:40:35;5.40;;;5.00;;
8913;SDS011;4492;48.736;9.092;2022-07-23T03:43:01;6.23;;;5.00;;
8913;SDS011;4492;48.736;9.092;2022-07-23T03:45:26;5.33;;;5.00;;
8913;SDS011;4492;48.736;9.092;2022-07-23T03:47:52;5.00;;;4.60;;
8913;SDS011;4492;48.736;9.092;2022-07-23T03:50:18;4.73;;;4.43;;
8913;SDS011;4492;48.736;9.092;2022-07-23T03:52:43;5.50;;;5.10;;
8913;SDS011;4492;48.736;9.092;2022-07-23T03:55:09;5.10;;;4.70;;
8913;SDS011;4492;48.736;9.092;2022-07-23T03:57:35;4.90;;;4.60;;
8913;SDS011;4492;48.736;9.092;2022-07-23T04:00:00;5.80;;;5.13;;
8913;SDS011;4492;48.736;9.092;2022-07-23T04:02:28;6.00;;;5.40;;
8913;SDS011;4492;48.736;9.092;2022-07-23T04:04:53;5.90;;;5.20;;
8913;SDS011;4492;48.736;9.092;2022-07-23T04:07:19;6.13;;;5.10;;
8913;SDS011;4492;48.736;9.092;2022-07-23T04:09:44;5.70;;;5.20;;
8913;SDS011;4492;48.736;9.092;2022-07-23T04:12:10;5.43;;;5.03;;
8913;SDS011;4492;48.736;9.092;2022-07-23T04:14:36;5.50;;;5.10;;
8913;SDS011;4492;48.736;9.092;2022-07-23T04:17:02;5.40;;;4.83;;
8913;SDS011;4492;48.736;9.092;2022-07-23T04:19:27;5.70;;;5.20;;
8913;SDS011;4492;48.736;9.092;2022-07-23T04:21:55;5.00;;;4.47;;
8913;SDS011;4492;48.736;9.092;2022-07-23T04:24:21;5.60;;;5.10;;
8913;SDS011;4492;48.736;9.092;2022-07-23T04:26:47;5.87;;;5.37;;
8913;SDS011;4492;48.736;9.092;2022-07-23T04:29:12;5.80;;;5.30;;
8913;SDS011;4492;48.736;9.092;2022-07-23T04:31:38;6.00;;;5.13;;
8913;SDS011;4492;48.736;9.092;2022-07-23T04:34:03;5.50;;;5.00;;
8913;SDS011;4492;48.736;9.092;2022-07-23T04:36:29;5.53;;;5.13;;
8913;SDS011;4492;48.736;9.092;2022-07-23T04:38:54;5.70;;;5.20;;
8913;SDS011;4492;48.736;9.092;2022-07-23T04:41:20;5.23;;;4.73;;
8913;SDS011;4492;48.736;9.092;2022-07-23T04:43:46;5.63;;;5.13;;
8913;SDS011;4492;48.736;9.092;2022-07-23T04:46:11;5.70;;;5.20;;
8913;SDS011;4492;48.736;9.092;2022-07-23T04:48:38;5.97;;;5.30;;
8913;SDS011;4492;48.736;9.092;2022-07-23T04:51:04;6.70;;;5.63;;
8913;SDS011;4492;48.736;9.092;2022-07-23T04:53:30;6.10;;;5.57;;
8913;SDS011;4492;48.736;9.092;2022-07-23T04:55:56;5.67;;;5.17;;
8913;SDS011;4492;48.736;9.092;2022-07-23T04:58:22;6.17;;;5.60;;
8913;SDS011;4492;48.736;9.092;2022-07-23T05:00:48;5.73;;;5.10;;
8913;SDS011;4492;48.736;9.092;2022-07-23T05:03:13;5.40;;;5.00;;
8913;SDS011;4492;48.736;9.092;2022-07-23T05:05:40;7.33;;;5.70;;
8913;SDS011;4492;48.736;9.092;2022-07-23T05:08:06;5.33;;;4.60;;
8913;SDS011;4492;48.736;9.092;2022-07-23T05:10:32;5.27;;;4.90;;
8913;SDS011;4492;48.736;9.092;2022-07-23T05:12:57;5.13;;;4.73;;
8913;SDS011;4492;48.736;9.092;2022-07-23T05:15:23;5.33;;;4.90;;
8913;SDS011;4492;48.736;9.092;2022-07-23T05:17:48;5.37;;;4.97;;
8913;SDS011;4492;48.736;9.092;2022-07-23T05:20:14;5.80;;;5.20;;
8913;SDS011;4492;48.736;9.092;2022-07-23T05:22:40;5.50;;;5.00;;
8913;SDS011;4492;48.736;9.092;2022-07-23T05:25:06;5.50;;;5.00;;
8913;SDS011;4492;48.736;9.092;2022-07-23T05:27:32;5.00;;;4.60;;
8913;SDS011;4492;48.736;9.092;2022-07-23T05:29:57;5.60;;;5.10;;
8913;SDS011;4492;48.736;9.092;2022-07-23T05:32:23;9.50;;;5.40;;
8913;SDS011;4492;48.736;9.092;2022-07-23T05:34:48;6.47;;;5.77;;
8913;SDS011;4492;48.736;9.092;2022-07-23T05:37:14;5.57;;;5.07;;
8913;SDS011;4492;48.736;9.092;2022-07-23T05:39:40;5.60;;;5.20;;
8913;SDS011;4492;48.736;9.092;2022-07-23T05:42:05;6.13;;;5.33;;
8913;SDS011;4492;48.736;9.092;2022-07-23T05:44:31;5.60;;;5.00;;
8913;SDS011;4492;48.736;9.092;2022-07-23T05:46:57;6.23;;;5.57;;
8913;SDS011;4492;48.736;9.092;2022-07-23T05:49:22;5.87;;;5.37;;
8913;SDS011;4492;48.736;9.092;2022-07-23T05:51:48;5.60;;;5.10;;
8913;SDS011;4492;48.736;9.092;2022-07-23T05:54:14;5.60;;;5.20;;
8913;SDS011;4492;48.736;9.092;2022-07-23T05:56:40;6.17;;;5.53;;
8913;SDS011;4492;48.736;9.092;2022-07-23T05:59:05;5.77;;;5.37;;
8913;SDS011;4492;48.736;9.092;2022-07-23T06:01:31;5.90;;;5.27;;
8913;SDS011;4492;48.736;9.092;2022-07-23T06:03:56;5.90;;;5.43;;
8913;SDS011;4492;48.736;9.092;2022-07-23T06:06:22;5.67;;;5.20;;
8913;SDS011;4492;48.736;9.092;2022-07-23T06:08:48;6.07;;;5.57;;
8913;SDS011;4492;48.736;9.092;2022-07-23T06:11:13;5.70;;;5.27;;
8913;SDS011;4492;48.736;9.092;2022-07-23T06:13:39;5.03;;;4.63;;
8913;SDS011;4492;48.736;9.092;2022-07-23T06:16:04;6.73;;;6.10;;
8913;SDS011;4492;48.736;9.092;2022-07-23T06:18:30;5.73;;;5.23;;
8913;SDS011;4492;48.736;9.092;2022-07-23T06:20:55;6.30;;;5.70;;
8913;SDS011;4492;48.736;9.092;2022-07-23T06:23:21;5.97;;;5.47;;
8913;SDS011;4492;48.736;9.092;2022-07-23T06:25:46;5.47;;;5.10;;
8913;SDS011;4492;48.736;9.092;2022-07-23T06:28:12;5.43;;;5.03;;
8913;SDS011;4492;48.736;9.092;2022-07-23T06:30:38;5.50;;;5.10;;
8913;SDS011;4492;48.736;9.092;2022-07-23T06:33:03;5.87;;;5.30;;
8913;SDS011;4492;48.736;9.092;2022-07-23T06:35:29;5.30;;;4.90;;
8913;SDS011;4492;48.736;9.092;2022-07-23T06:37:54;5.70;;;5.20;;
8913;SDS011;4492;48.736;9.092;2022-07-23T06:40:20;5.77;;;5.30;;
8913;SDS011;4492;48.736;9.092;2022-07-23T06:42:45;5.47;;;5.03;;
8913;SDS011;4492;48.736;9.092;2022-07-23T06:45:11;5.90;;;5.40;;
8913;SDS011;4492;48.736;9.092;2022-07-23T06:47:37;5.67;;;5.17;;
8913;SDS011;4492;48.736;9.092;2022-07-23T06:50:03;5.83;;;5.20;;
8913;SDS011;4492;48.736;9.092;2022-07-23T06:52:29;8.60;;;5.83;;
8913;SDS011;4492;48.736;9.092;2022-07-23T06:54:54;6.17;;;5.60;;
8913;SDS011;4492;48.736;9.092;2022-07-23T06:57:20;5.93;;;5.43;;
8913;SDS011;4492;48.736;9.092;2022-07-23T06:59:46;5.47;;;5.03;;
8913;SDS011;4492;48.736;9.092;2022-07-23T07:02:11;6.03;;;5.50;;
8913;SDS011;4492;48.736;9.092;2022-07-23T07:04:37;5.63;;;5.13;;
8913;SDS011;4492;48.736;9.092;2022-07-23T07:07:02;6.00;;;5.50;;
8913;SDS011;4492;48.736;9.092;2022-07-23T07:09:28;6.10;;;5.50;;
8913;SDS011;4492;48.736;9.092;2022-07-23T07:11:54;5.97;;;5.47;;
8913;SDS011;4492;48.736;9.092;2022-07-23T07:14:19;6.30;;;5.70;;
8913;SDS011;4492;48.736;9.092;2022-07-23T07:16:45;5.93;;;5.30;;
8913;SDS011;4492;48.736;9.092;2022-07-23T07:19:11;6.80;;;5.53;;
8913;SDS011;4492;48.736;9.092;2022-07-23T07:21:36;6.40;;;5.60;;
8913;SDS011;4492;48.736;9.092;2022-07-23T07:24:02;6.07;;;5.43;;
8913;SDS011;4492;48.736;9.092;2022-07-23T07:26:28;5.10;;;4.70;;
8913;SDS011;4492;48.736;9.092;2022-07-23T07:28:53;5.57;;;5.17;;
8913;SDS011;4492;48.736;9.092;2022-07-23T07:31:19;5.70;;;5.20;;
8913;SDS011;4492;48.736;9.092;2022-07-23T07:33:44;7.47;;;5.33;;
8913;SDS011;4492;48.736;9.092;2022-07-23T07:36:10;5.87;;;5.40;;
8913;SDS011;4492;48.736;9.092;2022-07-23T07:38:35;6.47;;;5.90;;
8913;SDS011;4492;48.736;9.092;2022-07-23T07:41:01;7.80;;;5.67;;
8913;SDS011;4492;48.736;9.092;2022-07-23T07:43:27;5.93;;;5.37;;
8913;SDS011;4492;48.736;9.092;2022-07-23T07:45:52;6.77;;;6.23;;
8913;SDS011;4492;48.736;9.092;2022-07-23T07:48:18;7.97;;;5.90;;
8913;SDS011;4492;48.736;9.092;2022-07-23T07:50:43;6.70;;;6.20;;
8913;SDS011;4492;48.736;9.092;2022-07-23T07:53:09;7.00;;;6.33;;
8913;SDS011;4492;48.736;9.092;2022-07-23T07:55:34;5.70;;;5.30;;
8913;SDS011;4492;48.736;9.092;2022-07-23T07:58:01;6.30;;;5.73;;
8913;SDS011;4492;48.736;9.092;2022-07-23T08:00:27;6.70;;;5.90;;
8913;SDS011;4492;48.736;9.092;2022-07-23T08:02:53;5.97;;;5.47;;
8913;SDS011;4492;48.736;9.092;2022-07-23T08:05:20;6.00;;;5.30;;
8913;SDS011;4492;48.736;9.092;2022-07-23T08:07:50;5.57;;;5.07;;
8913;SDS011;4492;48.736;9.092;2022-07-23T08:10:16;5.87;;;5.40;;
8913;SDS011;4492;48.736;9.092;2022-07-23T08:12:46;8.23;;;5.60;;
8913;SDS011;4492;48.736;9.092;2022-07-23T08:15:15;5.73;;;5.20;;
8913;SDS011;4492;48.736;9.092;2022-07-23T08:17:43;5.80;;;5.30;;
8913;SDS011;4492;48.736;9.092;2022-07-23T08:20:10;5.23;;;4.80;;
8913;SDS011;4492;48.736;9.092;2022-07-23T08:22:51;5.83;;;5.33;;
8913;SDS011;4492;48.736;9.092;2022-07-23T08:25:24;6.03;;;5.50;;
8913;SDS011;4492;48.736;9.092;2022-07-23T08:27:51;5.53;;;5.00;;
8913;SDS011;4492;48.736;9.092;2022-07-23T08:30:18;5.77;;;5.27;;
8913;SDS011;4492;48.736;9.092;2022-07-23T08:32:54;6.23;;;5.17;;
8913;SDS011;4492;48.736;9.092;2022-07-23T08:35:32;5.97;;;5.37;;
8913;SDS011;4492;48.736;9.092;2022-07-23T08:37:58;5.57;;;5.07;;
8913;SDS011;4492;48.736;9.092;2022-07-23T08:40:28;5.27;;;4.87;;
8913;SDS011;4492;48.736;9.092;2022-07-23T08:42:55;5.53;;;5.13;;
8913;SDS011;4492;48.736;9.092;2022-07-23T08:45:21;5.43;;;4.93;;
8913;SDS011;4492;48.736;9.092;2022-07-23T08:47:52;5.83;;;5.23;;
8913;SDS011;4492;48.736;9.092;2022-07-23T08:50:20;5.37;;;4.97;;
8913;SDS011;4492;48.736;9.092;2022-07-23T08:52:50;5.27;;;4.87;;
8913;SDS011;4492;48.736;9.092;2022-07-23T08:55:17;5.50;;;5.00;;
8913;SDS011;4492;48.736;9.092;2022-07-23T08:57:44;5.73;;;5.30;;
8913;SDS011;4492;48.736;9.092;2022-07-23T09:00:15;5.33;;;4.93;;
8913;SDS011;4492;48.736;9.092;2022-07-23T09:02:43;5.30;;;4.90;;
8913;SDS011;4492;48.736;9.092;2022-07-23T09:05:09;5.43;;;4.93;;
8913;SDS011;4492;48.736;9.092;2022-07-23T09:08:03;4.90;;;4.60;;
8913;SDS011;4492;48.736;9.092;2022-07-23T09:16:03;5.70;;;5.27;;
8913;SDS011;4492;48.736;9.092;2022-07-23T09:18:41;5.57;;;5.27;;
8913;SDS011;4492;48.736;9.092;2022-07-23T09:28:59;5.20;;;4.80;;
8913;SDS011;4492;48.736;9.092;2022-07-23T09:31:32;5.10;;;4.80;;
8913;SDS011;4492;48.736;9.092;2022-07-23T09:34:24;5.50;;;5.00;;
8913;SDS011;4492;48.736;9.092;2022-07-23T09:36:55;6.33;;;5.83;;
8913;SDS011;4492;48.736;9.092;2022-07-23T09:39:41;6.00;;;5.40;;
8913;SDS011;4492;48.736;9.092;2022-07-23T09:44:47;5.63;;;5.13;;
8913;SDS011;4492;48.736;9.092;2022-07-23T09:47:14;5.93;;;5.37;;
8913;SDS011;4492;48.736;9.092;2022-07-23T09:49:40;6.20;;;5.60;;
8913;SDS011;4492;48.736;9.092;2022-07-23T09:52:31;5.77;;;5.27;;
8913;SDS011;4492;48.736;9.092;2022-07-23T09:54:59;5.70;;;5.30;;
8913;SDS011;4492;48.736;9.092;2022-07-23T09:57:26;5.80;;;5.33;;
8913;SDS011;4492;48.736;9.092;2022-07-23T09:59:52;5.97;;;5.47;;
8913;SDS011;4492;48.736;9.092;2022-07-23T10:02:19;5.83;;;5.30;;
8913;SDS011;4492;48.736;9.092;2022-07-23T10:04:46;6.50;;;6.00;;
8913;SDS011;4492;48.736;9.092;2022-07-23T10:07:12;5.90;;;5.50;;
8913;SDS011;4492;48.736;9.092;2022-07-23T10:09:41;6.20;;;5.70;;
8913;SDS011;4492;48.736;9.092;2022-07-23T10:12:12;5.83;;;5.43;;
8913;SDS011;4492;48.736;9.092;2022-07-23T10:14:42;5.70;;;5.30;;
8913;SDS011;4492;48.736;9.092;2022-07-23T10:17:08;5.43;;;5.03;;
8913;SDS011;4492;48.736;9.092;2022-07-23T10:19:34;5.83;;;5.33;;
8913;SDS011;4492;48.736;9.092;2022-07-23T10:22:01;5.80;;;5.40;;
8913;SDS011;4492;48.736;9.092;2022-07-23T10:24:40;5.97;;;5.53;;
8913;SDS011;4492;48.736;9.092;2022-07-23T10:38:10;5.97;;;5.47;;
8913;SDS011;4492;48.736;9.092;2022-07-23T10:40:59;5.10;;;4.80;;
8913;SDS011;4492;48.736;9.092;2022-07-23T10:43:26;5.30;;;4.87;;
8913;SDS011;4492;48.736;9.092;2022-07-23T10:45:53;5.87;;;5.37;;
8913;SDS011;4492;48.736;9.092;2022-07-23T10:48:23;5.83;;;5.33;;
8913;SDS011;4492;48.736;9.092;2022-07-23T10:56:16;5.93;;;5.50;;
8913;SDS011;4492;48.736;9.092;2022-07-23T10:59:04;6.28;;;5.78;;
8913;SDS011;4492;48.736;9.092;2022-07-23T11:04:00;5.60;;;5.20;;
8913;SDS011;4492;48.736;9.092;2022-07-23T11:09:28;5.40;;;5.00;;
8913;SDS011;4492;48.736;9.092;2022-07-23T11:15:21;6.30;;;5.70;;
8913;SDS011;4492;48.736;9.092;2022-07-23T11:17:29;6.00;;;5.60;;
8913;SDS011;4492;48.736;9.092;2022-07-23T11:22:55;5.53;;;5.13;;
8913;SDS011;4492;48.736;9.092;2022-07-23T11:27:46;5.70;;;5.13;;
8913;SDS011;4492;48.736;9.092;2022-07-23T11:33:38;5.60;;;5.20;;
8913;SDS011;4492;48.736;9.092;2022-07-23T11:35:43;6.43;;;5.83;;
8913;SDS011;4492;48.736;9.092;2022-07-23T11:38:13;6.17;;;5.67;;
8913;SDS011;4492;48.736;9.092;2022-07-23T11:40:41;5.83;;;5.33;;
8913;SDS011;4492;48.736;9.092;2022-07-23T11:43:10;5.70;;;5.30;;
8913;SDS011;4492;48.736;9.092;2022-07-23T11:45:43;5.83;;;5.40;;
8913;SDS011;4492;48.736;9.092;2022-07-23T11:48:23;6.07;;;5.60;;
8913;SDS011;4492;48.736;9.092;2022-07-23T11:50:51;6.03;;;5.50;;
8913;SDS011;4492;48.736;9.092;2022-07-23T11:53:21;5.80;;;5.40;;
8913;SDS011;4492;48.736;9.092;2022-07-23T11:55:57;5.87;;;5.37;;
8913;SDS011;4492;48.736;9.092;2022-07-23T11:58:28;6.03;;;5.60;;
8913;SDS011;4492;48.736;9.092;2022-07-23T12:00:54;6.33;;;5.73;;
8913;SDS011;4492;48.736;9.092;2022-07-23T12:03:20;5.80;;;5.40;;
8913;SDS011;4492;48.736;9.092;2022-07-23T12:05:46;6.10;;;5.67;;
8913;SDS011;4492;48.736;9.092;2022-07-23T12:08:11;5.90;;;5.40;;
8913;SDS011;4492;48.736;9.092;2022-07-23T12:10:41;6.60;;;6.00;;
8913;SDS011;4492;48.736;9.092;2022-07-23T12:13:10;12.13;;;11.23;;
8913;SDS011;4492;48.736;9.092;2022-07-23T12:15:41;7.77;;;7.17;;
8913;SDS011;4492;48.736;9.092;2022-07-23T12:18:09;6.27;;;5.77;;
8913;SDS011;4492;48.736;9.092;2022-07-23T12:20:40;6.77;;;6.27;;
8913;SDS011;4492;48.736;9.092;2022-07-23T12:23:09;6.93;;;6.23;;
8913;SDS011;4492;48.736;9.092;2022-07-23T12:25:37;6.90;;;6.30;;
8913;SDS011;4492;48.736;9.092;2022-07-23T12:28:05;6.53;;;6.03;;
8913;SDS011;4492;48.736;9.092;2022-07-23T12:30:43;6.53;;;6.03;;
8913;SDS011;4492;48.736;9.092;2022-07-23T12:33:11;6.37;;;5.87;;
8913;SDS011;4492;48.736;9.092;2022-07-23T12:35:42;6.97;;;6.37;;
8913;SDS011;4492;48.736;9.092;2022-07-23T12:38:11;6.77;;;6.13;;
8913;SDS011;4492;48.736;9.092;2022-07-23T12:46:02;6.57;;;6.07;;
8913;SDS011;4492;48.736;9.092;2022-07-23T12:48:35;7.63;;;7.03;;
8913;SDS011;4492;48.736;9.092;2022-07-23T12:51:25;7.37;;;6.73;;
8913;SDS011;4492;48.736;9.092;2022-07-23T12:56:27;6.70;;;6.10;;
8913;SDS011;4492;48.736;9.092;2022-07-23T12:58:58;7.57;;;6.73;;
8913;SDS011;4492;48.736;9.092;2022-07-23T13:01:35;6.83;;;6.30;;
8913;SDS011;4492;48.736;9.092;2022-07-23T13:09:05;7.00;;;6.30;;
8913;SDS011;4492;48.736;9.092;2022-07-23T13:11:32;6.60;;;6.00;;
8913;SDS011;4492;48.736;9.092;2022-07-23T13:13:59;6.80;;;6.03;;
8913;SDS011;4492;48.736;9.092;2022-07-23T13:16:26;6.50;;;6.00;;
8913;SDS011;4492;48.736;9.092;2022-07-23T13:18:52;6.30;;;5.83;;
8913;SDS011;4492;48.736;9.092;2022-07-23T13:21:17;6.07;;;5.67;;
8913;SDS011;4492;48.736;9.092;2022-07-23T13:23:43;6.23;;;5.77;;
8913;SDS011;4492;48.736;9.092;2022-07-23T13:26:09;6.27;;;5.87;;
8913;SDS011;4492;48.736;9.092;2022-07-23T13:28:34;6.20;;;5.70;;
8913;SDS011;4492;48.736;9.092;2022-07-23T13:31:00;6.90;;;6.40;;
8913;SDS011;4492;48.736;9.092;2022-07-23T13:33:26;6.50;;;6.00;;
8913;SDS011;4492;48.736;9.092;2022-07-23T13:35:52;6.40;;;6.00;;
8913;SDS011;4492;48.736;9.092;2022-07-23T13:38:19;6.10;;;5.70;;
8913;SDS011;4492;48.736;9.092;2022-07-23T13:40:46;6.93;;;6.33;;
8913;SDS011;4492;48.736;9.092;2022-07-23T13:43:15;6.03;;;5.63;;
8913;SDS011;4492;48.736;9.092;2022-07-23T13:45:43;6.37;;;5.87;;
8913;SDS011;4492;48.736;9.092;2022-07-23T13:48:09;6.40;;;5.90;;
8913;SDS011;4492;48.736;9.092;2022-07-23T13:50:36;7.20;;;6.60;;
8913;SDS011;4492;48.736;9.092;2022-07-23T13:53:02;6.70;;;6.20;;
8913;SDS011;4492;48.736;9.092;2022-07-23T13:55:29;6.83;;;6.33;;
8913;SDS011;4492;48.736;9.092;2022-07-23T13:57:55;6.67;;;6.17;;
8913;SDS011;4492;48.736;9.092;2022-07-23T14:00:21;7.13;;;6.53;;
8913;SDS011;4492;48.736;9.092;2022-07-23T14:02:47;6.73;;;6.20;;
8913;SDS011;4492;48.736;9.092;2022-07-23T14:05:12;7.03;;;6.40;;
8913;SDS011;4492;48.736;9.092;2022-07-23T14:07:38;7.00;;;6.40;;
8913;SDS011;4492;48.736;9.092;2022-07-23T14:10:04;8.03;;;6.53;;
8913;SDS011;4492;48.736;9.092;2022-07-23T14:12:31;6.30;;;5.83;;
8913;SDS011;4492;48.736;9.092;2022-07-23T14:14:57;8.40;;;6.40;;
8913;SDS011;4492;48.736;9.092;2022-07-23T14:17:23;6.83;;;6.23;;
8913;SDS011;4492;48.736;9.092;2022-07-23T14:19:49;7.03;;;6.32;;
8913;SDS011;4492;48.736;9.092;2022-07-23T14:22:15;6.10;;;5.70;;
8913;SDS011;4492;48.736;9.092;2022-07-23T14:24:40;7.03;;;6.47;;
8913;SDS011;4492;48.736;9.092;2022-07-23T14:27:06;8.30;;;6.53;;
8913;SDS011;4492;48.736;9.092;2022-07-23T14:29:32;6.90;;;6.30;;
8913;SDS011;4492;48.736;9.092;2022-07-23T14:31:58;6.87;;;6.27;;
8913;SDS011;4492;48.736;9.092;2022-07-23T14:34:24;6.83;;;6.23;;
8913;SDS011;4492;48.736;9.092;2022-07-23T14:36:50;6.60;;;5.90;;
8913;SDS011;4492;48.736;9.092;2022-07-23T14:39:15;6.40;;;6.00;;
8913;SDS011;4492;48.736;9.092;2022-07-23T14:41:41;6.30;;;5.70;;
8913;SDS011;4492;48.736;9.092;2022-07-23T14:44:07;6.60;;;6.10;;
8913;SDS011;4492;48.736;9.092;2022-07-23T14:46:32;6.82;;;6.22;;
8913;SDS011;4492;48.736;9.092;2022-07-23T14:48:58;6.85;;;6.30;;
8913;SDS011;4492;48.736;9.092;2022-07-23T14:51:24;6.90;;;6.40;;
8913;SDS011;4492;48.736;9.092;2022-07-23T14:53:49;7.20;;;6.60;;
8913;SDS011;4492;48.736;9.092;2022-07-23T14:56:15;6.72;;;6.13;;
8913;SDS011;4492;48.736;9.092;2022-07-23T14:58:43;6.47;;;6.03;;
8913;SDS011;4492;48.736;9.092;2022-07-23T15:01:10;7.17;;;6.47;;
8913;SDS011;4492;48.736;9.092;2022-07-23T15:03:35;7.20;;;6.60;;
8913;SDS011;4492;48.736;9.092;2022-07-23T15:06:01;6.95;;;6.20;;
8913;SDS011;4492;48.736;9.092;2022-07-23T15:08:26;6.57;;;5.97;;
8913;SDS011;4492;48.736;9.092;2022-07-23T15:10:52;7.00;;;6.33;;
8913;SDS011;4492;48.736;9.092;2022-07-23T15:13:17;6.63;;;6.03;;
8913;SDS011;4492;48.736;9.092;2022-07-23T15:15:43;6.72;;;6.13;;
8913;SDS011;4492;48.736;9.092;2022-07-23T15:18:09;6.53;;;5.97;;
8913;SDS011;4492;48.736;9.092;2022-07-23T15:20:35;7.43;;;6.00;;
8913;SDS011;4492;48.736;9.092;2022-07-23T15:23:02;6.63;;;6.05;;
8913;SDS011;4492;48.736;9.092;2022-07-23T15:25:28;6.80;;;6.20;;
8913;SDS011;4492;48.736;9.092;2022-07-23T15:27:53;7.20;;;6.60;;
8913;SDS011;4492;48.736;9.092;2022-07-23T15:30:19;6.60;;;6.00;;
8913;SDS011;4492;48.736;9.092;2022-07-23T15:32:44;6.85;;;6.35;;
8913;SDS011;4492;48.736;9.092;2022-07-23T15:35:10;6.57;;;6.07;;
8913;SDS011;4492;48.736;9.092;2022-07-23T15:37:35;7.43;;;6.72;;
8913;SDS011;4492;48.736;9.092;2022-07-23T15:40:02;7.05;;;6.20;;
8913;SDS011;4492;48.736;9.092;2022-07-23T15:42:31;7.20;;;6.60;;
8913;SDS011;4492;48.736;9.092;2022-07-23T15:44:57;6.82;;;6.32;;
8913;SDS011;4492;48.736;9.092;2022-07-23T15:47:23;7.35;;;6.75;;
8913;SDS011;4492;48.736;9.092;2022-07-23T15:49:48;6.78;;;6.18;;
8913;SDS011;4492;48.736;9.092;2022-07-23T15:52:14;7.03;;;6.35;;
8913;SDS011;4492;48.736;9.092;2022-07-23T15:54:39;7.10;;;6.50;;
8913;SDS011;4492;48.736;9.092;2022-07-23T15:57:05;6.90;;;6.30;;
8913;SDS011;4492;48.736;9.092;2022-07-23T15:59:31;6.68;;;6.18;;
8913;SDS011;4492;48.736;9.092;2022-07-23T16:01:57;7.30;;;6.68;;
8913;SDS011;4492;48.736;9.092;2022-07-23T16:04:22;7.55;;;6.05;;
8913;SDS011;4492;48.736;9.092;2022-07-23T16:06:48;7.03;;;6.53;;
8913;SDS011;4492;48.736;9.092;2022-07-23T16:09:14;6.70;;;6.20;;
8913;SDS011;4492;48.736;9.092;2022-07-23T16:11:39;7.03;;;6.50;;
8913;SDS011;4492;48.736;9.092;2022-07-23T16:14:05;6.97;;;6.43;;
8913;SDS011;4492;48.736;9.092;2022-07-23T16:16:31;8.57;;;7.03;;